Judi M. — WCX8376 — position and weather

sailwx.info

Track history (hours):
 
Tides and Currents Weather Stations Pressure Air Temp Water Temp Dewpoint Dewpoint Depression Visibility Wind Speed Wind Dir Waves Ship Positions

Judi M.

More information available from US FCC via Universal Licensing System and Coast Guard Vessel Documentation Center.

Last reported at 2014-Sep-02 01:33 UTC. Time now 2014-Sep-02 02:13 UTC.
Position N 47°55' W 122°29'.

Length 29 m; draft 4 m.

Type: Tow > 200 m length. MMSI: 366740920.

Date/timePositionNaut miles runAvg speedWind from/ knotsBaromVisibWave heightAir tempDewpointWater temp
2014-Sep-02 01:33N 47°55' W 122°29'0 0.0
2014-Sep-02 01:33N 47°55' W 122°29'8 8.4
2014-Sep-02 00:33N 47°47' W 122°26'0 8.1
2014-Sep-02 00:33N 47°47' W 122°26'8 8.5
2014-Sep-01 23:33N 47°39' W 122°27'0 8.4
2014-Sep-01 23:33N 47°39' W 122°27'6 5.5
2014-Sep-01 22:33N 47°34' W 122°22'0 0.0
2014-Sep-01 22:33N 47°34' W 122°22'0 0.0
2014-Sep-01 21:33N 47°34' W 122°22'0 0.0
2014-Sep-01 21:33N 47°34' W 122°22'0 0.0
2014-Sep-01 20:32N 47°34' W 122°22'0 0.0
2014-Sep-01 20:32N 47°34' W 122°22'0 0.0
2014-Sep-01 19:33N 47°34' W 122°22'0 0.0
2014-Sep-01 19:32N 47°34' W 122°22'0 0.0
2014-Sep-01 18:32N 47°34' W 122°22'0 0.0
2014-Sep-01 18:32N 47°34' W 122°22'0 0.0
2014-Sep-01 17:06N 47°34' W 122°22'0 0.0
2014-Sep-01 16:29N 47°34' W 122°22'0 0.0
2014-Sep-01 13:28N 47°34' W 122°22'0 0.0
2014-Sep-01 06:33N 47°34' W 122°22'0 0.0
2014-Sep-01 05:33N 47°34' W 122°22'0 0.3
2014-Sep-01 04:33N 47°35' W 122°22'8 7.9
2014-Sep-01 03:34N 47°29' W 122°30'1010.5
2014-Sep-01 02:34N 47°19' W 122°33'8 7.9
2014-Sep-01 01:33N 47°12' W 122°37'11 8.7
2014-Sep-01 00:20N 47°10' W 122°53'6 2.3
2014-Aug-31 21:33N 47°03' W 122°54'0 0.1
2014-Aug-31 19:14N 47°03' W 122°55'11 0.4
2014-Aug-30 14:22N 47°11' W 122°43'910.9
2014-Aug-30 13:34N 47°16' W 122°33'1110.9
2014-Aug-30 12:33N 47°27' W 122°31'1110.6
2014-Aug-30 11:33N 47°36' W 122°23'2 2.0
2014-Aug-30 10:33N 47°34' W 122°22'0 0.0
2014-Aug-30 09:33N 47°34' W 122°22'0 0.0
2014-Aug-30 08:33N 47°34' W 122°22'0 0.0
2014-Aug-30 07:33N 47°34' W 122°22'1 0.9
2014-Aug-30 06:33N 47°35' W 122°22'5 4.6
2014-Aug-30 05:33N 47°38' W 122°28'6 6.2
2014-Aug-30 04:33N 47°44' W 122°27'7 6.7
2014-Aug-30 03:33N 47°51' W 122°28'7 6.7
2014-Aug-30 02:33N 47°57' W 122°33'8 7.8
2014-Aug-30 01:32N 48°03' W 122°39'6 1.5
2014-Aug-29 21:33N 48°06' W 122°48'0 0.0
2014-Aug-29 19:09N 48°06' W 122°48'5 0.6
2014-Aug-29 11:22N 48°06' W 122°41'5 6.1
2014-Aug-29 10:33N 48°02' W 122°37'7 6.9
2014-Aug-29 09:33N 47°57' W 122°31'8 8.3
2014-Aug-29 08:33N 47°49' W 122°27'9 8.8
2014-Aug-29 07:33N 47°40' W 122°27'7 6.5
2014-Aug-29 06:33N 47°35' W 122°22'  
2014-Aug-27 01:17N 47°34' W 122°22'1 1.9
2014-Aug-27 00:33N 47°36' W 122°22'6 6.0
2014-Aug-26 23:33N 47°40' W 122°28'7 7.1
2014-Aug-26 22:33N 47°47' W 122°27'7 7.3
2014-Aug-26 21:33N 47°54' W 122°30'7 7.4
2014-Aug-26 20:33N 47°60' W 122°37'7 6.4
2014-Aug-26 19:28N 48°06' W 122°40'7 6.8
2014-Aug-26 18:28N 48°11' W 122°48'5 5.2
2014-Aug-26 17:32N 48°16' W 122°49'10 7.4
2014-Aug-26 16:14N 48°25' W 122°45'6 8.6
2014-Aug-26 15:31N 48°31' W 122°45'7 7.4
2014-Aug-26 14:33N 48°38' W 122°44'6 6.0
2014-Aug-26 13:33N 48°44' W 122°46'6 6.4
2014-Aug-26 12:33N 48°48' W 122°54'7 6.6
2014-Aug-26 11:33N 48°51' W 123°03'7 7.5
2014-Aug-26 10:33N 48°56' W 123°12'7 7.0
2014-Aug-26 09:33N 49°00' W 123°20'7 6.8
2014-Aug-26 08:33N 49°06' W 123°26'7 7.4
2014-Aug-26 07:33N 49°13' W 123°28'7 7.4
2014-Aug-26 06:33N 49°20' W 123°27'7 6.9
2014-Aug-26 05:33N 49°27' W 123°28'4 0.5
2014-Aug-25 22:13N 49°31' W 123°29'0 0.0
2014-Aug-25 21:31N 49°31' W 123°29'0 0.0
2014-Aug-25 19:27N 49°31' W 123°29'0 0.0
2014-Aug-25 14:27N 49°31' W 123°29'3 3.2
2014-Aug-25 13:32N 49°28' W 123°28'6 5.9
2014-Aug-25 12:27N 49°22' W 123°26'7 7.6
2014-Aug-25 11:33N 49°15' W 123°28'8 7.9
2014-Aug-25 10:33N 49°08' W 123°25'8 8.2
2014-Aug-25 09:33N 49°02' W 123°16'8 8.4
2014-Aug-25 08:33N 48°56' W 123°06'8 8.3
2014-Aug-25 07:33N 48°51' W 122°57'9 8.6
2014-Aug-25 06:33N 48°46' W 122°46'7 7.0
2014-Aug-25 05:33N 48°39' W 122°43'6 6.1
2014-Aug-25 04:33N 48°33' W 122°45'8 7.6
2014-Aug-25 03:30N 48°25' W 122°44'10 8.1
2014-Aug-25 02:18N 48°15' W 122°47'9 7.8
2014-Aug-25 01:06N 48°07' W 122°40'5 7.3
2014-Aug-25 00:28N 48°03' W 122°38'6 6.8
2014-Aug-24 23:33N 47°58' W 122°33'7 7.2
2014-Aug-24 22:33N 47°52' W 122°27'8 8.0
2014-Aug-24 21:33N 47°44' W 122°26'7 7.2
2014-Aug-24 20:33N 47°37' W 122°24'3 0.8
2014-Aug-24 17:19N 47°34' W 122°22'0 0.0
2014-Aug-24 15:16N 47°34' W 122°22'0 0.0
2014-Aug-24 14:25N 47°34' W 122°22'0 0.0
2014-Aug-24 13:33N 47°34' W 122°22'0 0.0
2014-Aug-24 12:23N 47°34' W 122°22'0 0.0
2014-Aug-24 10:32N 47°34' W 122°22'0 0.0
2014-Aug-24 08:06N 47°34' W 122°22'0 0.3
2014-Aug-24 06:33N 47°35' W 122°22'4 4.3
2014-Aug-24 05:33N 47°38' W 122°26'6 5.8
2014-Aug-24 04:33N 47°44' W 122°27'6 5.8
2014-Aug-24 03:33N 47°49' W 122°28'6 6.3
2014-Aug-24 02:33N 47°55' W 122°31'6 6.2
2014-Aug-24 01:33N 47°60' W 122°37'6 5.5
2014-Aug-24 00:32N 48°05' W 122°40'5 4.2
2014-Aug-23 23:16N 48°06' W 122°48'  
Track history (hours):
 
Tides and Currents Weather Stations Pressure Air Temp Water Temp Dewpoint Dewpoint Depression Visibility Wind Speed Wind Dir Waves Ship Positions

Judi M.

More information available from US FCC via Universal Licensing System and Coast Guard Vessel Documentation Center.

Last reported at 2014-Sep-02 01:33 UTC. Time now 2014-Sep-02 02:13 UTC.
Position N 47°55' W 122°29'.

Length 29 m; draft 4 m.

Type: Tow > 200 m length. MMSI: 366740920.

Date/timePositionNaut miles runAvg speedWind from/ knotsBaromVisibWave heightAir tempDewpointWater temp
2014-Sep-02 01:33N 47°55' W 122°29'0 0.0
2014-Sep-02 01:33N 47°55' W 122°29'8 8.4
2014-Sep-02 00:33N 47°47' W 122°26'0 8.1
2014-Sep-02 00:33N 47°47' W 122°26'8 8.5
2014-Sep-01 23:33N 47°39' W 122°27'0 8.4
2014-Sep-01 23:33N 47°39' W 122°27'6 5.5
2014-Sep-01 22:33N 47°34' W 122°22'0 0.0
2014-Sep-01 22:33N 47°34' W 122°22'0 0.0
2014-Sep-01 21:33N 47°34' W 122°22'0 0.0
2014-Sep-01 21:33N 47°34' W 122°22'0 0.0
2014-Sep-01 20:32N 47°34' W 122°22'0 0.0
2014-Sep-01 20:32N 47°34' W 122°22'0 0.0
2014-Sep-01 19:33N 47°34' W 122°22'0 0.0
2014-Sep-01 19:32N 47°34' W 122°22'0 0.0
2014-Sep-01 18:32N 47°34' W 122°22'0 0.0
2014-Sep-01 18:32N 47°34' W 122°22'0 0.0
2014-Sep-01 17:06N 47°34' W 122°22'0 0.0
2014-Sep-01 16:29N 47°34' W 122°22'0 0.0
2014-Sep-01 13:28N 47°34' W 122°22'0 0.0
2014-Sep-01 06:33N 47°34' W 122°22'0 0.0
2014-Sep-01 05:33N 47°34' W 122°22'0 0.3
2014-Sep-01 04:33N 47°35' W 122°22'8 7.9
2014-Sep-01 03:34N 47°29' W 122°30'1010.5
2014-Sep-01 02:34N 47°19' W 122°33'8 7.9
2014-Sep-01 01:33N 47°12' W 122°37'11 8.7
2014-Sep-01 00:20N 47°10' W 122°53'6 2.3
2014-Aug-31 21:33N 47°03' W 122°54'0 0.1
2014-Aug-31 19:14N 47°03' W 122°55'11 0.4
2014-Aug-30 14:22N 47°11' W 122°43'910.9
2014-Aug-30 13:34N 47°16' W 122°33'1110.9
2014-Aug-30 12:33N 47°27' W 122°31'1110.6
2014-Aug-30 11:33N 47°36' W 122°23'2 2.0
2014-Aug-30 10:33N 47°34' W 122°22'0 0.0
2014-Aug-30 09:33N 47°34' W 122°22'0 0.0
2014-Aug-30 08:33N 47°34' W 122°22'0 0.0
2014-Aug-30 07:33N 47°34' W 122°22'1 0.9
2014-Aug-30 06:33N 47°35' W 122°22'5 4.6
2014-Aug-30 05:33N 47°38' W 122°28'6 6.2
2014-Aug-30 04:33N 47°44' W 122°27'7 6.7
2014-Aug-30 03:33N 47°51' W 122°28'7 6.7
2014-Aug-30 02:33N 47°57' W 122°33'8 7.8
2014-Aug-30 01:32N 48°03' W 122°39'6 1.5
2014-Aug-29 21:33N 48°06' W 122°48'0 0.0
2014-Aug-29 19:09N 48°06' W 122°48'5 0.6
2014-Aug-29 11:22N 48°06' W 122°41'5 6.1
2014-Aug-29 10:33N 48°02' W 122°37'7 6.9
2014-Aug-29 09:33N 47°57' W 122°31'8 8.3
2014-Aug-29 08:33N 47°49' W 122°27'9 8.8
2014-Aug-29 07:33N 47°40' W 122°27'7 6.5
2014-Aug-29 06:33N 47°35' W 122°22'  
2014-Aug-27 01:17N 47°34' W 122°22'1 1.9
2014-Aug-27 00:33N 47°36' W 122°22'6 6.0
2014-Aug-26 23:33N 47°40' W 122°28'7 7.1
2014-Aug-26 22:33N 47°47' W 122°27'7 7.3
2014-Aug-26 21:33N 47°54' W 122°30'7 7.4
2014-Aug-26 20:33N 47°60' W 122°37'7 6.4
2014-Aug-26 19:28N 48°06' W 122°40'7 6.8
2014-Aug-26 18:28N 48°11' W 122°48'5 5.2
2014-Aug-26 17:32N 48°16' W 122°49'10 7.4
2014-Aug-26 16:14N 48°25' W 122°45'6 8.6
2014-Aug-26 15:31N 48°31' W 122°45'7 7.4
2014-Aug-26 14:33N 48°38' W 122°44'6 6.0
2014-Aug-26 13:33N 48°44' W 122°46'6 6.4
2014-Aug-26 12:33N 48°48' W 122°54'7 6.6
2014-Aug-26 11:33N 48°51' W 123°03'7 7.5
2014-Aug-26 10:33N 48°56' W 123°12'7 7.0
2014-Aug-26 09:33N 49°00' W 123°20'7 6.8
2014-Aug-26 08:33N 49°06' W 123°26'7 7.4
2014-Aug-26 07:33N 49°13' W 123°28'7 7.4
2014-Aug-26 06:33N 49°20' W 123°27'7 6.9
2014-Aug-26 05:33N 49°27' W 123°28'4 0.5
2014-Aug-25 22:13N 49°31' W 123°29'0 0.0
2014-Aug-25 21:31N 49°31' W 123°29'0 0.0
2014-Aug-25 19:27N 49°31' W 123°29'0 0.0
2014-Aug-25 14:27N 49°31' W 123°29'3 3.2
2014-Aug-25 13:32N 49°28' W 123°28'6 5.9
2014-Aug-25 12:27N 49°22' W 123°26'7 7.6
2014-Aug-25 11:33N 49°15' W 123°28'8 7.9
2014-Aug-25 10:33N 49°08' W 123°25'8 8.2
2014-Aug-25 09:33N 49°02' W 123°16'8 8.4
2014-Aug-25 08:33N 48°56' W 123°06'8 8.3
2014-Aug-25 07:33N 48°51' W 122°57'9 8.6
2014-Aug-25 06:33N 48°46' W 122°46'7 7.0
2014-Aug-25 05:33N 48°39' W 122°43'6 6.1
2014-Aug-25 04:33N 48°33' W 122°45'8 7.6
2014-Aug-25 03:30N 48°25' W 122°44'10 8.1
2014-Aug-25 02:18N 48°15' W 122°47'9 7.8
2014-Aug-25 01:06N 48°07' W 122°40'5 7.3
2014-Aug-25 00:28N 48°03' W 122°38'6 6.8
2014-Aug-24 23:33N 47°58' W 122°33'7 7.2
2014-Aug-24 22:33N 47°52' W 122°27'8 8.0
2014-Aug-24 21:33N 47°44' W 122°26'7 7.2
2014-Aug-24 20:33N 47°37' W 122°24'3 0.8
2014-Aug-24 17:19N 47°34' W 122°22'0 0.0
2014-Aug-24 15:16N 47°34' W 122°22'0 0.0
2014-Aug-24 14:25N 47°34' W 122°22'0 0.0
2014-Aug-24 13:33N 47°34' W 122°22'0 0.0
2014-Aug-24 12:23N 47°34' W 122°22'0 0.0
2014-Aug-24 10:32N 47°34' W 122°22'0 0.0
2014-Aug-24 08:06N 47°34' W 122°22'0 0.3
2014-Aug-24 06:33N 47°35' W 122°22'4 4.3
2014-Aug-24 05:33N 47°38' W 122°26'6 5.8
2014-Aug-24 04:33N 47°44' W 122°27'6 5.8
2014-Aug-24 03:33N 47°49' W 122°28'6 6.3
2014-Aug-24 02:33N 47°55' W 122°31'6 6.2
2014-Aug-24 01:33N 47°60' W 122°37'6 5.5
2014-Aug-24 00:32N 48°05' W 122°40'5 4.2
2014-Aug-23 23:16N 48°06' W 122°48'  

Dump ship's entire track history